sensor_id;sensor_type;location;lat;lon;timestamp;P1;durP1;ratioP1;P2;durP2;ratioP2
71963;SDS011;59834;52.124;5.422;2023-06-01T00:00:46;6.57;;;2.05;;
71963;SDS011;59834;52.124;5.422;2023-06-01T00:03:14;4.20;;;1.90;;
71963;SDS011;59834;52.124;5.422;2023-06-01T00:06:07;6.35;;;2.80;;
71963;SDS011;59834;52.124;5.422;2023-06-01T00:08:34;3.80;;;2.13;;
71963;SDS011;59834;52.124;5.422;2023-06-01T00:11:02;12.18;;;2.90;;
71963;SDS011;59834;52.124;5.422;2023-06-01T00:13:30;8.65;;;2.90;;
71963;SDS011;59834;52.124;5.422;2023-06-01T00:16:02;5.10;;;2.73;;
71963;SDS011;59834;52.124;5.422;2023-06-01T00:18:30;7.43;;;2.58;;
71963;SDS011;59834;52.124;5.422;2023-06-01T00:20:59;5.60;;;2.55;;
71963;SDS011;59834;52.124;5.422;2023-06-01T00:23:28;8.15;;;2.75;;
71963;SDS011;59834;52.124;5.422;2023-06-01T00:25:58;8.25;;;2.55;;
71963;SDS011;59834;52.124;5.422;2023-06-01T00:28:29;4.97;;;2.97;;
71963;SDS011;59834;52.124;5.422;2023-06-01T00:30:56;6.53;;;2.15;;
71963;SDS011;59834;52.124;5.422;2023-06-01T00:33:27;8.98;;;2.67;;
71963;SDS011;59834;52.124;5.422;2023-06-01T00:35:54;7.53;;;2.28;;
71963;SDS011;59834;52.124;5.422;2023-06-01T00:38:22;6.70;;;3.15;;
71963;SDS011;59834;52.124;5.422;2023-06-01T00:40:51;4.47;;;2.10;;
71963;SDS011;59834;52.124;5.422;2023-06-01T00:43:18;8.68;;;3.90;;
71963;SDS011;59834;52.124;5.422;2023-06-01T00:45:54;5.90;;;2.65;;
71963;SDS011;59834;52.124;5.422;2023-06-01T00:48:22;9.38;;;2.95;;
71963;SDS011;59834;52.124;5.422;2023-06-01T00:50:51;8.15;;;2.05;;
71963;SDS011;59834;52.124;5.422;2023-06-01T00:53:18;4.83;;;2.20;;
71963;SDS011;59834;52.124;5.422;2023-06-01T00:55:48;11.65;;;2.10;;
71963;SDS011;59834;52.124;5.422;2023-06-01T00:58:17;11.07;;;1.67;;
71963;SDS011;59834;52.124;5.422;2023-06-01T01:00:55;5.63;;;1.92;;
71963;SDS011;59834;52.124;5.422;2023-06-01T01:03:23;7.68;;;3.05;;
71963;SDS011;59834;52.124;5.422;2023-06-01T01:05:55;6.40;;;2.27;;
71963;SDS011;59834;52.124;5.422;2023-06-01T01:08:45;5.57;;;2.13;;
71963;SDS011;59834;52.124;5.422;2023-06-01T01:11:23;6.65;;;2.13;;
71963;SDS011;59834;52.124;5.422;2023-06-01T01:13:57;5.13;;;2.75;;
71963;SDS011;59834;52.124;5.422;2023-06-01T01:16:35;7.25;;;1.70;;
71963;SDS011;59834;52.124;5.422;2023-06-01T01:19:11;7.30;;;2.10;;
71963;SDS011;59834;52.124;5.422;2023-06-01T01:28:09;7.05;;;1.80;;
71963;SDS011;59834;52.124;5.422;2023-06-01T01:30:54;5.90;;;2.30;;
71963;SDS011;59834;52.124;5.422;2023-06-01T01:33:22;10.03;;;2.23;;
71963;SDS011;59834;52.124;5.422;2023-06-01T01:35:50;9.38;;;2.88;;
71963;SDS011;59834;52.124;5.422;2023-06-01T01:38:18;4.60;;;1.75;;
71963;SDS011;59834;52.124;5.422;2023-06-01T01:40:46;8.27;;;1.95;;
71963;SDS011;59834;52.124;5.422;2023-06-01T01:43:19;6.55;;;2.60;;
71963;SDS011;59834;52.124;5.422;2023-06-01T01:45:48;11.67;;;2.50;;
71963;SDS011;59834;52.124;5.422;2023-06-01T01:48:34;9.20;;;2.90;;
71963;SDS011;59834;52.124;5.422;2023-06-01T01:51:09;6.88;;;2.58;;
71963;SDS011;59834;52.124;5.422;2023-06-01T01:53:46;8.88;;;3.08;;
71963;SDS011;59834;52.124;5.422;2023-06-01T01:56:18;6.30;;;2.10;;
71963;SDS011;59834;52.124;5.422;2023-06-01T01:58:47;6.90;;;2.50;;
71963;SDS011;59834;52.124;5.422;2023-06-01T02:01:16;6.50;;;2.20;;
71963;SDS011;59834;52.124;5.422;2023-06-01T02:03:47;3.67;;;2.33;;
71963;SDS011;59834;52.124;5.422;2023-06-01T02:06:28;8.52;;;2.50;;
71963;SDS011;59834;52.124;5.422;2023-06-01T02:08:59;9.15;;;2.58;;
71963;SDS011;59834;52.124;5.422;2023-06-01T02:11:30;9.13;;;2.80;;
71963;SDS011;59834;52.124;5.422;2023-06-01T02:13:57;5.97;;;2.90;;
71963;SDS011;59834;52.124;5.422;2023-06-01T02:23:05;5.53;;;2.63;;
71963;SDS011;59834;52.124;5.422;2023-06-01T02:25:47;6.93;;;2.67;;
71963;SDS011;59834;52.124;5.422;2023-06-01T02:28:32;5.90;;;2.65;;
71963;SDS011;59834;52.124;5.422;2023-06-01T02:31:01;7.15;;;2.80;;
71963;SDS011;59834;52.124;5.422;2023-06-01T02:33:32;6.45;;;2.90;;
71963;SDS011;59834;52.124;5.422;2023-06-01T02:36:03;8.85;;;3.38;;
71963;SDS011;59834;52.124;5.422;2023-06-01T02:38:34;10.07;;;3.53;;
71963;SDS011;59834;52.124;5.422;2023-06-01T02:41:04;4.05;;;2.95;;
71963;SDS011;59834;52.124;5.422;2023-06-01T02:43:33;7.32;;;3.10;;
71963;SDS011;59834;52.124;5.422;2023-06-01T02:46:05;7.25;;;3.15;;
71963;SDS011;59834;52.124;5.422;2023-06-01T02:48:33;6.47;;;3.30;;
71963;SDS011;59834;52.124;5.422;2023-06-01T02:51:00;8.23;;;3.80;;
71963;SDS011;59834;52.124;5.422;2023-06-01T02:53:32;12.20;;;4.65;;
71963;SDS011;59834;52.124;5.422;2023-06-01T02:55:59;13.88;;;3.13;;
71963;SDS011;59834;52.124;5.422;2023-06-01T02:58:28;7.07;;;2.78;;
71963;SDS011;59834;52.124;5.422;2023-06-01T03:01:00;13.30;;;3.78;;
71963;SDS011;59834;52.124;5.422;2023-06-01T03:03:32;7.70;;;3.50;;
71963;SDS011;59834;52.124;5.422;2023-06-01T03:06:03;10.23;;;3.45;;
71963;SDS011;59834;52.124;5.422;2023-06-01T03:08:35;7.60;;;2.88;;
71963;SDS011;59834;52.124;5.422;2023-06-01T03:11:07;10.23;;;3.65;;
71963;SDS011;59834;52.124;5.422;2023-06-01T03:13:47;7.20;;;2.97;;
71963;SDS011;59834;52.124;5.422;2023-06-01T03:16:28;5.43;;;2.43;;
71963;SDS011;59834;52.124;5.422;2023-06-01T03:18:55;7.97;;;4.15;;
71963;SDS011;59834;52.124;5.422;2023-06-01T03:21:25;9.02;;;3.35;;
71963;SDS011;59834;52.124;5.422;2023-06-01T03:23:53;10.18;;;2.83;;
71963;SDS011;59834;52.124;5.422;2023-06-01T03:26:21;8.50;;;3.03;;
71963;SDS011;59834;52.124;5.422;2023-06-01T03:28:50;8.50;;;3.20;;
71963;SDS011;59834;52.124;5.422;2023-06-01T03:31:17;7.57;;;2.45;;
71963;SDS011;59834;52.124;5.422;2023-06-01T03:33:52;12.10;;;3.42;;
71963;SDS011;59834;52.124;5.422;2023-06-01T03:36:29;14.35;;;3.00;;
71963;SDS011;59834;52.124;5.422;2023-06-01T03:39:02;10.65;;;3.03;;
71963;SDS011;59834;52.124;5.422;2023-06-01T03:44:43;8.07;;;3.17;;
71963;SDS011;59834;52.124;5.422;2023-06-01T04:12:49;6.47;;;3.00;;
71963;SDS011;59834;52.124;5.422;2023-06-01T04:16:02;8.20;;;2.93;;
71963;SDS011;59834;52.124;5.422;2023-06-01T04:18:47;8.60;;;3.30;;
71963;SDS011;59834;52.124;5.422;2023-06-01T04:22:04;13.45;;;4.50;;
71963;SDS011;59834;52.124;5.422;2023-06-01T04:28:29;11.65;;;2.30;;
71963;SDS011;59834;52.124;5.422;2023-06-01T04:31:03;7.93;;;2.63;;
71963;SDS011;59834;52.124;5.422;2023-06-01T04:36:33;7.70;;;2.60;;
71963;SDS011;59834;52.124;5.422;2023-06-01T04:39:33;10.23;;;3.40;;
71963;SDS011;59834;52.124;5.422;2023-06-01T04:42:24;15.07;;;2.67;;
71963;SDS011;59834;52.124;5.422;2023-06-01T04:44:57;9.87;;;2.13;;
71963;SDS011;59834;52.124;5.422;2023-06-01T04:47:54;4.68;;;2.42;;
71963;SDS011;59834;52.124;5.422;2023-06-01T04:50:46;4.70;;;2.30;;
71963;SDS011;59834;52.124;5.422;2023-06-01T05:04:26;9.07;;;2.65;;
71963;SDS011;59834;52.124;5.422;2023-06-01T05:39:44;7.67;;;3.23;;
71963;SDS011;59834;52.124;5.422;2023-06-01T05:42:12;9.13;;;3.03;;
71963;SDS011;59834;52.124;5.422;2023-06-01T05:44:43;12.00;;;3.00;;
71963;SDS011;59834;52.124;5.422;2023-06-01T05:51:19;10.77;;;3.85;;
71963;SDS011;59834;52.124;5.422;2023-06-01T06:06:06;7.18;;;2.83;;
71963;SDS011;59834;52.124;5.422;2023-06-01T06:08:54;7.90;;;2.55;;
71963;SDS011;59834;52.124;5.422;2023-06-01T06:11:39;6.57;;;3.30;;
71963;SDS011;59834;52.124;5.422;2023-06-01T06:50:36;8.13;;;3.93;;
71963;SDS011;59834;52.124;5.422;2023-06-01T06:53:04;8.77;;;2.75;;
71963;SDS011;59834;52.124;5.422;2023-06-01T06:55:31;15.73;;;3.92;;
71963;SDS011;59834;52.124;5.422;2023-06-01T06:57:58;7.18;;;2.97;;
71963;SDS011;59834;52.124;5.422;2023-06-01T07:00:29;14.40;;;3.63;;
71963;SDS011;59834;52.124;5.422;2023-06-01T07:02:59;13.70;;;4.20;;
71963;SDS011;59834;52.124;5.422;2023-06-01T07:05:40;9.52;;;2.67;;
71963;SDS011;59834;52.124;5.422;2023-06-01T07:08:08;5.95;;;2.72;;
71963;SDS011;59834;52.124;5.422;2023-06-01T07:10:49;10.73;;;3.38;;
71963;SDS011;59834;52.124;5.422;2023-06-01T07:13:21;6.88;;;3.17;;
71963;SDS011;59834;52.124;5.422;2023-06-01T07:16:02;10.20;;;3.20;;
71963;SDS011;59834;52.124;5.422;2023-06-01T07:18:53;10.23;;;2.92;;
71963;SDS011;59834;52.124;5.422;2023-06-01T07:52:31;6.17;;;2.47;;
71963;SDS011;59834;52.124;5.422;2023-06-01T08:25:49;7.43;;;2.15;;
71963;SDS011;59834;52.124;5.422;2023-06-01T08:28:20;6.10;;;2.20;;
71963;SDS011;59834;52.124;5.422;2023-06-01T08:30:48;6.28;;;1.63;;
71963;SDS011;59834;52.124;5.422;2023-06-01T08:33:16;4.40;;;1.45;;
71963;SDS011;59834;52.124;5.422;2023-06-01T08:35:54;6.40;;;2.20;;
71963;SDS011;59834;52.124;5.422;2023-06-01T08:38:24;4.85;;;1.77;;
71963;SDS011;59834;52.124;5.422;2023-06-01T08:41:00;4.43;;;1.70;;
71963;SDS011;59834;52.124;5.422;2023-06-01T08:43:31;4.75;;;2.25;;
71963;SDS011;59834;52.124;5.422;2023-06-01T08:49:03;22.38;;;2.92;;
71963;SDS011;59834;52.124;5.422;2023-06-01T08:51:34;3.22;;;1.65;;
71963;SDS011;59834;52.124;5.422;2023-06-01T08:54:10;5.67;;;2.10;;
71963;SDS011;59834;52.124;5.422;2023-06-01T08:57:09;8.52;;;2.45;;
71963;SDS011;59834;52.124;5.422;2023-06-01T08:59:38;4.80;;;2.05;;
71963;SDS011;59834;52.124;5.422;2023-06-01T09:02:05;7.78;;;2.22;;
71963;SDS011;59834;52.124;5.422;2023-06-01T09:04:47;3.00;;;1.92;;
71963;SDS011;59834;52.124;5.422;2023-06-01T09:19:21;6.07;;;1.63;;
71963;SDS011;59834;52.124;5.422;2023-06-01T09:22:13;5.47;;;2.63;;
71963;SDS011;59834;52.124;5.422;2023-06-01T09:24:56;7.90;;;2.63;;
71963;SDS011;59834;52.124;5.422;2023-06-01T09:27:27;5.20;;;1.85;;
71963;SDS011;59834;52.124;5.422;2023-06-01T09:29:56;6.93;;;2.28;;
71963;SDS011;59834;52.124;5.422;2023-06-01T09:32:30;4.97;;;2.05;;
71963;SDS011;59834;52.124;5.422;2023-06-01T09:34:58;3.33;;;1.65;;
71963;SDS011;59834;52.124;5.422;2023-06-01T09:37:25;4.60;;;2.00;;
71963;SDS011;59834;52.124;5.422;2023-06-01T09:39:53;4.40;;;2.00;;
71963;SDS011;59834;52.124;5.422;2023-06-01T09:42:36;5.18;;;1.98;;
71963;SDS011;59834;52.124;5.422;2023-06-01T09:45:21;7.00;;;2.35;;
71963;SDS011;59834;52.124;5.422;2023-06-01T09:47:51;3.78;;;1.88;;
71963;SDS011;59834;52.124;5.422;2023-06-01T09:50:35;5.67;;;1.90;;
71963;SDS011;59834;52.124;5.422;2023-06-01T09:53:04;5.05;;;1.90;;
71963;SDS011;59834;52.124;5.422;2023-06-01T09:55:35;6.45;;;2.30;;
71963;SDS011;59834;52.124;5.422;2023-06-01T09:58:44;5.93;;;2.10;;
71963;SDS011;59834;52.124;5.422;2023-06-01T10:01:13;5.03;;;1.80;;
71963;SDS011;59834;52.124;5.422;2023-06-01T10:03:42;4.10;;;2.80;;
71963;SDS011;59834;52.124;5.422;2023-06-01T10:06:12;4.38;;;2.25;;
71963;SDS011;59834;52.124;5.422;2023-06-01T10:08:41;5.00;;;2.20;;
71963;SDS011;59834;52.124;5.422;2023-06-01T10:11:08;4.10;;;2.05;;
71963;SDS011;59834;52.124;5.422;2023-06-01T10:13:37;6.93;;;2.58;;
71963;SDS011;59834;52.124;5.422;2023-06-01T10:16:07;4.63;;;2.07;;
71963;SDS011;59834;52.124;5.422;2023-06-01T10:18:35;6.97;;;2.17;;
71963;SDS011;59834;52.124;5.422;2023-06-01T10:21:13;12.70;;;2.75;;
71963;SDS011;59834;52.124;5.422;2023-06-01T10:24:01;5.85;;;2.15;;
71963;SDS011;59834;52.124;5.422;2023-06-01T10:29:44;7.00;;;2.70;;
71963;SDS011;59834;52.124;5.422;2023-06-01T10:40:45;3.63;;;2.20;;
71963;SDS011;59834;52.124;5.422;2023-06-01T10:48:58;7.15;;;3.83;;
71963;SDS011;59834;52.124;5.422;2023-06-01T10:51:29;3.80;;;1.77;;
71963;SDS011;59834;52.124;5.422;2023-06-01T11:02:46;7.88;;;1.73;;
71963;SDS011;59834;52.124;5.422;2023-06-01T11:05:39;5.22;;;2.50;;
71963;SDS011;59834;52.124;5.422;2023-06-01T11:13:17;7.10;;;1.52;;
71963;SDS011;59834;52.124;5.422;2023-06-01T11:19:02;4.88;;;1.30;;
71963;SDS011;59834;52.124;5.422;2023-06-01T11:28:49;6.53;;;1.48;;
71963;SDS011;59834;52.124;5.422;2023-06-01T11:40:15;3.45;;;1.15;;
71963;SDS011;59834;52.124;5.422;2023-06-01T11:42:45;7.63;;;1.27;;
71963;SDS011;59834;52.124;5.422;2023-06-01T11:49:48;2.17;;;0.82;;
71963;SDS011;59834;52.124;5.422;2023-06-01T11:52:17;3.45;;;1.05;;
71963;SDS011;59834;52.124;5.422;2023-06-01T11:55:01;3.20;;;1.42;;
71963;SDS011;59834;52.124;5.422;2023-06-01T12:01:13;7.13;;;1.35;;
71963;SDS011;59834;52.124;5.422;2023-06-01T12:03:46;3.13;;;1.00;;
71963;SDS011;59834;52.124;5.422;2023-06-01T12:06:23;1.92;;;1.02;;
71963;SDS011;59834;52.124;5.422;2023-06-01T12:09:22;1.95;;;0.88;;
71963;SDS011;59834;52.124;5.422;2023-06-01T12:14:43;3.55;;;0.95;;
71963;SDS011;59834;52.124;5.422;2023-06-01T12:56:36;4.75;;;1.40;;
71963;SDS011;59834;52.124;5.422;2023-06-01T13:00:10;2.70;;;0.80;;
71963;SDS011;59834;52.124;5.422;2023-06-01T13:09:43;3.78;;;0.80;;
71963;SDS011;59834;52.124;5.422;2023-06-01T13:16:30;3.75;;;0.55;;
71963;SDS011;59834;52.124;5.422;2023-06-01T13:19:10;2.15;;;0.50;;
71963;SDS011;59834;52.124;5.422;2023-06-01T13:26:01;3.42;;;0.40;;
71963;SDS011;59834;52.124;5.422;2023-06-01T13:28:38;3.05;;;0.70;;
71963;SDS011;59834;52.124;5.422;2023-06-01T13:31:35;7.28;;;0.85;;
71963;SDS011;59834;52.124;5.422;2023-06-01T13:40:05;2.05;;;0.60;;
71963;SDS011;59834;52.124;5.422;2023-06-01T13:42:38;1.98;;;0.50;;
71963;SDS011;59834;52.124;5.422;2023-06-01T13:45:36;2.42;;;0.80;;
71963;SDS011;59834;52.124;5.422;2023-06-01T13:59:20;2.75;;;0.73;;
71963;SDS011;59834;52.124;5.422;2023-06-01T14:09:21;4.47;;;0.40;;
71963;SDS011;59834;52.124;5.422;2023-06-01T14:12:57;1.45;;;0.30;;
71963;SDS011;59834;52.124;5.422;2023-06-01T14:15:30;1.30;;;0.35;;
71963;SDS011;59834;52.124;5.422;2023-06-01T14:18:00;0.82;;;0.30;;
71963;SDS011;59834;52.124;5.422;2023-06-01T14:24:53;2.07;;;0.40;;
71963;SDS011;59834;52.124;5.422;2023-06-01T14:39:15;1.55;;;0.63;;
71963;SDS011;59834;52.124;5.422;2023-06-01T14:41:51;0.70;;;0.20;;
71963;SDS011;59834;52.124;5.422;2023-06-01T15:03:07;1.58;;;0.30;;
71963;SDS011;59834;52.124;5.422;2023-06-01T15:06:31;2.22;;;0.35;;
71963;SDS011;59834;52.124;5.422;2023-06-01T15:38:20;1.98;;;0.50;;
71963;SDS011;59834;52.124;5.422;2023-06-01T16:04:50;2.78;;;0.63;;
71963;SDS011;59834;52.124;5.422;2023-06-01T16:45:47;7.22;;;0.60;;
71963;SDS011;59834;52.124;5.422;2023-06-01T17:04:12;5.47;;;0.65;;
71963;SDS011;59834;52.124;5.422;2023-06-01T17:31:11;4.60;;;0.70;;
71963;SDS011;59834;52.124;5.422;2023-06-01T17:50:21;3.28;;;1.02;;
71963;SDS011;59834;52.124;5.422;2023-06-01T18:33:26;3.53;;;0.38;;
71963;SDS011;59834;52.124;5.422;2023-06-01T18:36:25;2.13;;;0.35;;
71963;SDS011;59834;52.124;5.422;2023-06-01T19:26:30;12.65;;;0.50;;
71963;SDS011;59834;52.124;5.422;2023-06-01T19:41:30;5.23;;;0.70;;
71963;SDS011;59834;52.124;5.422;2023-06-01T19:44:22;3.22;;;0.30;;
71963;SDS011;59834;52.124;5.422;2023-06-01T20:07:19;1.67;;;0.30;;
71963;SDS011;59834;52.124;5.422;2023-06-01T20:20:38;1.75;;;0.52;;
71963;SDS011;59834;52.124;5.422;2023-06-01T20:23:42;10.13;;;1.30;;
71963;SDS011;59834;52.124;5.422;2023-06-01T20:26:30;5.03;;;1.17;;
71963;SDS011;59834;52.124;5.422;2023-06-01T20:31:53;5.80;;;0.47;;
71963;SDS011;59834;52.124;5.422;2023-06-01T20:34:45;3.20;;;0.70;;
